Time;durP1;ratioP1;P1;durP2;ratioP2;P2;SDS_P1;SDS_P2;PMS_P1;PMS_P2;Temp;Humidity;BMP_temperature;BMP_pressure;BME280_temperature;BME280_humidity;BME280_pressure;Samples;Min_cycle;Max_cycle;Signal;HPM_P1;HPM_P2
2022/02/05 00:44:54;;;;;;;0.25;0.10;;;;;;;5.77;66.23;97265.19;9875051;30;20090;-77
2022/02/05 00:50:20;;;;;;;0.30;0.10;;;;;;;5.66;65.77;97274.75;9873371;30;20047;-77
2022/02/05 00:55:51;;;;;;;0.10;0.00;;;;;;;5.58;65.10;97263.03;9875000;30;20055;-77
2022/02/05 01:01:12;;;;;;;0.10;0.10;;;;;;;5.47;64.88;97294.72;9898993;30;20410;-76
2022/02/05 01:06:34;;;;;;;0.20;0.10;;;;;;;5.44;65.30;97303.44;9860943;29;20081;-78
2022/02/05 01:11:58;;;;;;;1.75;0.10;;;;;;;5.39;65.22;97315.47;9885392;29;20058;-77
2022/02/05 01:17:26;;;;;;;0.10;0.00;;;;;;;5.33;65.09;97343.41;9873000;30;20047;-77
2022/02/05 01:22:49;;;;;;;0.20;0.10;;;;;;;5.40;65.29;97364.75;9874034;30;20509;-77
2022/02/05 01:28:16;;;;;;;0.52;0.10;;;;;;;5.41;65.29;97379.31;9884580;30;20502;-77
2022/02/05 01:33:58;;;;;;;0.35;0.10;;;;;;;5.46;65.35;97392.91;9885289;30;20055;-77
2022/02/05 01:56:18;;;;;;;0.20;0.10;;;;;;;4.52;64.65;97439.72;9884270;30;20122;-77
2022/02/05 02:13:48;;;;;;;0.90;0.25;;;;;;;4.52;64.05;97469.41;9876827;30;20054;-77
2022/02/05 02:19:23;;;;;;;0.43;0.10;;;;;;;4.68;63.99;97486.66;9877267;30;20081;-77
2022/02/05 02:30:29;;;;;;;0.20;0.10;;;;;;;4.59;62.45;97490.75;9884969;30;20054;-77
2022/02/05 02:35:50;;;;;;;0.32;0.10;;;;;;;4.41;62.83;97503.72;9872341;30;20051;-77
2022/02/05 02:41:18;;;;;;;0.82;0.10;;;;;;;4.35;62.71;97502.50;9882874;30;20082;-78
2022/02/05 02:46:39;;;;;;;0.52;0.10;;;;;;;4.35;61.31;97519.06;9871516;30;20130;-77
2022/02/05 02:57:40;;;;;;;0.75;0.10;;;;;;;4.15;62.02;97540.88;9884189;30;20067;-77
2022/02/05 03:03:01;;;;;;;0.32;0.10;;;;;;;4.02;61.93;97547.31;9872233;29;20478;-77
2022/02/05 03:08:22;;;;;;;0.30;0.10;;;;;;;4.08;62.22;97555.41;9898505;29;20051;-77
2022/02/05 03:13:44;;;;;;;0.57;0.10;;;;;;;3.96;61.83;97571.66;9885261;29;20051;-77
2022/02/05 03:19:10;;;;;;;1.27;0.10;;;;;;;3.87;61.16;97582.53;9892017;29;20074;-77
2022/02/05 03:24:32;;;;;;;0.57;0.10;;;;;;;3.79;62.12;97595.59;9886925;29;20042;-77
2022/02/05 03:29:53;;;;;;;0.30;0.20;;;;;;;3.65;62.08;97590.22;9913189;29;20065;-77
2022/02/05 03:35:14;;;;;;;2.17;0.40;;;;;;;3.55;61.46;97597.59;9907609;29;20451;-77
2022/02/05 03:40:36;;;;;;;0.50;0.10;;;;;;;3.49;61.63;97610.84;9925462;29;20051;-77
2022/02/05 03:45:57;;;;;;;1.70;0.20;;;;;;;3.40;61.42;97619.66;9937890;29;20414;-77
2022/02/05 03:51:18;;;;;;;1.02;0.10;;;;;;;3.34;61.68;97627.38;9912562;29;20406;-77
2022/02/05 03:56:39;;;;;;;2.22;0.30;;;;;;;3.29;61.46;97629.03;9924768;29;20055;-76
2022/02/05 04:02:01;;;;;;;0.68;0.20;;;;;;;3.21;61.41;97635.81;9912364;29;20047;-76
2022/02/05 04:07:23;;;;;;;0.80;0.20;;;;;;;3.14;62.01;97640.75;9924732;29;20093;-77
2022/02/05 04:18:24;;;;;;;0.50;0.10;;;;;;;2.98;61.94;97657.78;9929183;29;20501;-77
2022/02/05 04:23:48;;;;;;;0.63;0.13;;;;;;;2.92;61.79;97676.53;9912344;29;20043;-77
2022/02/05 04:29:09;;;;;;;1.75;0.20;;;;;;;2.87;61.70;97678.88;9924206;29;20109;-76
2022/02/05 04:34:30;;;;;;;1.95;0.20;;;;;;;2.81;61.71;97672.06;9936049;29;20108;-76
2022/02/05 04:40:22;;;;;;;1.90;0.20;;;;;;;2.84;61.65;97679.22;9911459;29;20110;-77
2022/02/05 04:56:57;;;;;;;3.08;0.30;;;;;;;2.74;61.74;97701.06;9914502;29;20051;-76
2022/02/05 05:08:10;;;;;;;2.45;0.32;;;;;;;2.69;60.45;97720.50;9924024;29;20067;-77
2022/02/05 05:24:33;;;;;;;1.05;0.22;;;;;;;2.58;60.78;97752.56;9921447;29;20051;-76
2022/02/05 05:29:54;;;;;;;1.48;0.30;;;;;;;2.56;60.51;97757.16;9896627;29;20069;-77
2022/02/05 05:35:15;;;;;;;1.40;0.20;;;;;;;2.52;60.89;97765.03;9921932;29;20054;-76
2022/02/05 05:40:37;;;;;;;1.83;0.30;;;;;;;2.51;60.89;97772.56;9909349;29;20456;-76
2022/02/05 05:51:18;;;;;;;1.45;0.30;;;;;;;2.46;61.02;97770.69;9920942;29;20050;-76
2022/02/05 05:56:41;;;;;;;2.20;0.30;;;;;;;2.41;61.54;97771.53;9920759;29;20047;-76
2022/02/05 06:02:02;;;;;;;1.95;0.40;;;;;;;2.35;61.15;97776.47;9920419;29;20050;-76
2022/02/05 06:07:23;;;;;;;2.20;0.30;;;;;;;2.38;61.21;97774.66;9920130;29;20123;-76
2022/02/05 06:12:44;;;;;;;0.73;0.20;;;;;;;2.41;61.25;97768.06;9920059;29;20047;-76
2022/02/05 06:18:07;;;;;;;1.70;0.30;;;;;;;2.59;61.56;97786.38;9920078;29;20406;-76
2022/02/05 06:23:38;;;;;;;1.70;0.40;;;;;;;2.86;61.11;97797.97;9909622;29;20047;-76
2022/02/05 06:28:58;;;;;;;3.05;0.30;;;;;;;3.02;60.48;97794.03;9919016;29;20046;-77
2022/02/05 06:34:19;;;;;;;2.53;0.30;;;;;;;2.95;60.54;97803.00;9905425;29;20055;-78
2022/02/05 06:39:41;;;;;;;1.70;0.38;;;;;;;2.85;60.51;97813.78;9919714;29;20075;-80
2022/02/05 06:45:02;;;;;;;2.67;0.43;;;;;;;2.82;60.68;97822.41;9931921;29;20096;-79
2022/02/05 06:50:28;;;;;;;2.38;0.65;;;;;;;2.85;60.65;97835.84;9919712;29;20081;-79
2022/02/05 06:55:57;;;;;;;2.03;0.60;;;;;;;3.54;60.72;97839.00;9932842;29;20095;-75
2022/02/05 07:01:19;;;;;;;2.20;0.40;;;;;;;6.93;57.63;97847.63;9932306;29;20141;-76
2022/02/05 07:06:40;;;;;;;1.65;0.40;;;;;;;8.44;51.99;97852.06;9919550;29;20446;-77
2022/02/05 07:12:01;;;;;;;2.85;0.35;;;;;;;6.18;52.58;97842.81;9921842;29;20043;-76
2022/02/05 07:17:33;;;;;;;3.55;0.52;;;;;;;6.17;54.30;97848.91;9926939;29;20054;-76
2022/02/05 07:34:02;;;;;;;2.13;0.45;;;;;;;14.10;40.81;97892.50;9930903;29;20047;-78
2022/02/05 07:39:22;;;;;;;4.78;0.43;;;;;;;15.38;39.69;97902.19;9928434;29;20047;-79
2022/02/05 07:44:43;;;;;;;2.53;0.43;;;;;;;16.67;37.38;97895.78;9941239;29;20054;-76
2022/02/05 07:50:04;;;;;;;2.08;0.45;;;;;;;17.53;35.21;97911.59;9926325;29;20043;-77
2022/02/05 07:55:25;;;;;;;3.05;0.88;;;;;;;18.13;33.25;97915.53;9926827;29;20563;-79
2022/02/05 08:00:47;;;;;;;1.73;0.40;;;;;;;19.12;31.32;97924.34;9925256;29;20054;-79
2022/02/05 08:06:15;;;;;;;2.00;0.50;;;;;;;18.66;30.29;97926.16;9924667;29;20445;-79
2022/02/05 08:11:38;;;;;;;1.70;0.50;;;;;;;17.60;31.29;97933.09;9925535;29;20054;-79
2022/02/05 08:17:06;;;;;;;2.60;0.32;;;;;;;22.51;25.89;97941.75;9924554;29;20486;-77
2022/02/05 08:22:30;;;;;;;2.13;0.50;;;;;;;25.27;21.19;97945.41;9925175;29;20051;-77
2022/02/05 08:27:50;;;;;;;1.70;0.60;;;;;;;20.75;22.42;97961.06;9923679;29;20051;-79
2022/02/05 08:33:15;;;;;;;1.83;0.43;;;;;;;14.99;27.14;97973.28;9923007;29;20051;-78
2022/02/05 08:38:35;;;;;;;2.72;0.47;;;;;;;12.03;30.57;97963.41;9907812;29;20050;-77
2022/02/05 08:43:57;;;;;;;3.35;0.80;;;;;;;11.66;33.39;97979.06;9938239;29;20051;-78
2022/02/05 08:49:18;;;;;;;2.00;0.63;;;;;;;17.34;29.21;97979.91;9923356;29;20050;-77
2022/02/05 08:54:39;;;;;;;4.93;0.98;;;;;;;20.09;26.23;97977.34;9922599;29;20047;-74
2022/02/05 09:00:10;;;;;;;2.58;0.63;;;;;;;19.52;24.84;97966.81;9922540;29;20054;-74
2022/02/05 09:05:42;;;;;;;1.77;0.60;;;;;;;18.54;26.40;97982.91;9935870;29;20066;-74
2022/02/05 09:11:17;;;;;;;15.35;9.20;;;;;;;20.32;25.77;97975.22;9923220;29;20047;-80
2022/02/05 09:16:38;;;;;;;5.65;3.13;;;;;;;18.39;25.52;97989.34;9910355;29;20051;-79
2022/02/05 09:22:00;;;;;;;7.28;4.70;;;;;;;17.41;26.50;97995.75;9921345;29;20042;-74
2022/02/05 09:27:21;;;;;;;2.67;1.52;;;;;;;19.49;25.69;97998.53;9921413;29;20053;-76
2022/02/05 09:32:43;;;;;;;2.35;0.70;;;;;;;19.19;24.02;98000.97;9896411;29;20046;-76
2022/02/05 09:38:04;;;;;;;2.55;0.50;;;;;;;20.82;24.23;98015.88;9933263;29;20073;-80
2022/02/05 09:43:26;;;;;;;1.50;0.50;;;;;;;21.75;22.16;98026.47;9920881;29;20053;-77
2022/02/05 09:48:48;;;;;;;2.13;0.85;;;;;;;18.35;24.34;98013.91;9934551;29;20042;-79
2022/02/05 09:54:09;;;;;;;1.13;0.60;;;;;;;24.90;22.45;98029.84;9933660;29;20051;-75
2022/02/05 09:59:38;;;;;;;3.08;0.60;;;;;;;29.67;17.37;98027.78;9920214;29;20058;-74
2022/02/05 10:05:08;;;;;;;6.15;1.17;;;;;;;30.02;15.17;98030.50;9933346;29;20409;-74
2022/02/05 10:10:45;;;;;;;1.58;0.45;;;;;;;27.80;15.80;98016.97;9962694;29;20062;-76
2022/02/05 10:16:07;;;;;;;3.15;0.70;;;;;;;27.77;15.25;98040.59;9944953;29;20421;-73
2022/02/05 10:21:29;;;;;;;2.53;0.70;;;;;;;23.52;17.53;98032.97;9969749;29;20050;-77
2022/02/05 10:26:53;;;;;;;2.85;0.80;;;;;;;21.40;20.00;98031.16;9956928;29;20077;-78
2022/02/05 10:32:16;;;;;;;2.30;1.02;;;;;;;21.08;20.64;98021.63;9944958;29;20051;-75
2022/02/05 10:37:46;;;;;;;2.33;0.73;;;;;;;25.53;17.39;98021.44;9956667;29;20434;-74
2022/02/05 10:43:07;;;;;;;1.83;0.47;;;;;;;27.45;14.45;98030.41;9906444;30;20124;-74
2022/02/05 10:48:28;;;;;;;;;;;;;;;24.47;16.90;98042.69;9891088;30;20051;-73
2022/02/05 10:53:54;;;;;;;2.22;0.60;;;;;;;27.68;14.23;98011.19;9914572;30;19959;-79
2022/02/05 10:59:29;;;;;;;3.33;0.80;;;;;;;24.59;14.41;98036.44;9901861;30;20111;-78
2022/02/05 11:16:47;;;;;;;1.83;1.00;;;;;;;17.02;21.86;98052.47;9901220;30;20079;-79
2022/02/05 11:22:06;;;;;;;3.42;1.77;;;;;;;14.64;23.83;98038.06;9901722;30;20047;-75
2022/02/05 11:27:27;;;;;;;3.90;1.33;;;;;;;14.33;26.17;98032.78;9901685;30;20399;-75
2022/02/05 11:32:51;;;;;;;3.63;0.80;;;;;;;14.24;25.49;98047.69;9902909;30;20055;-75
2022/02/05 11:38:11;;;;;;;3.75;0.70;;;;;;;12.65;27.45;98054.84;9903961;30;20052;-78
2022/02/05 11:43:36;;;;;;;3.83;0.70;;;;;;;11.27;29.98;98057.50;9895105;29;20043;-80
2022/02/05 11:49:06;;;;;;;4.40;0.60;;;;;;;10.42;30.72;98057.78;9889676;29;20055;-77
2022/02/05 11:54:27;;;;;;;2.90;0.90;;;;;;;9.91;31.70;98062.38;9906185;29;20122;-80
2022/02/05 11:59:53;;;;;;;5.47;0.70;;;;;;;9.86;33.05;98055.03;9918678;29;20384;-79
2022/02/05 12:05:16;;;;;;;5.55;0.70;;;;;;;9.98;33.11;98049.63;9926766;29;20074;-77
2022/02/05 12:10:45;;;;;;;4.45;0.70;;;;;;;10.02;33.34;98055.50;9904571;29;20416;-76
2022/02/05 12:16:06;;;;;;;3.22;0.75;;;;;;;10.07;33.98;98062.13;9921303;29;20081;-80
2022/02/05 12:21:28;;;;;;;1.88;0.50;;;;;;;9.99;33.62;98065.03;9922634;29;20458;-80
2022/02/05 12:26:49;;;;;;;4.38;0.93;;;;;;;9.79;33.75;98055.16;9921986;29;20051;-82
2022/02/05 12:32:10;;;;;;;5.18;1.45;;;;;;;9.92;35.07;98057.53;9923330;29;20058;-82
2022/02/05 12:37:33;;;;;;;7.47;2.33;;;;;;;11.27;34.55;98056.78;9923655;29;20559;-77
2022/02/05 12:42:54;;;;;;;3.50;1.10;;;;;;;11.33;33.46;98038.38;9907116;29;20060;-80
2022/02/05 12:48:20;;;;;;;3.40;0.80;;;;;;;11.26;33.52;98032.97;9941172;29;20103;-82
2022/02/05 12:53:43;;;;;;;4.28;0.80;;;;;;;10.60;34.45;98053.50;9929052;29;20060;-82
2022/02/05 12:59:10;;;;;;;2.40;0.77;;;;;;;10.46;34.66;98066.44;9907480;29;20470;-79
2022/02/05 13:04:32;;;;;;;2.80;0.82;;;;;;;10.20;34.96;98061.69;9914608;29;20066;-79
2022/02/05 13:09:59;;;;;;;3.92;0.65;;;;;;;9.76;35.59;98062.63;9870940;30;20391;-78
2022/02/05 13:15:23;;;;;;;4.70;0.80;;;;;;;9.32;35.72;98066.25;9874614;30;20046;-80
2022/02/05 13:26:42;;;;;;;2.88;0.75;;;;;;;8.89;37.63;98073.38;9865480;30;20055;-80
2022/02/05 13:37:52;;;;;;;3.38;0.90;;;;;;;8.29;37.79;98072.69;9851901;30;20055;-76
2022/02/05 13:43:18;;;;;;;3.95;0.82;;;;;;;8.19;38.62;98075.38;9913739;29;20462;-76
2022/02/05 13:48:40;;;;;;;2.65;0.68;;;;;;;8.32;39.04;98091.03;9871703;30;20044;-76
2022/02/05 13:54:01;;;;;;;3.30;0.63;;;;;;;8.39;39.07;98086.72;9846616;30;20051;-76
2022/02/05 13:59:22;;;;;;;3.35;0.77;;;;;;;8.71;39.38;98083.78;9846794;30;20087;-76
2022/02/05 14:04:43;;;;;;;2.58;0.60;;;;;;;8.67;39.14;98083.44;9846541;30;20063;-76
2022/02/05 14:10:19;;;;;;;2.78;0.70;;;;;;;8.29;39.43;98086.59;9834135;30;20074;-76
2022/02/05 14:15:49;;;;;;;3.97;0.90;;;;;;;7.77;40.11;98075.41;9834123;30;20055;-75
2022/02/05 14:21:10;;;;;;;4.00;1.27;;;;;;;7.56;40.21;98078.53;9847092;30;20108;-76
2022/02/05 14:26:38;;;;;;;5.03;1.33;;;;;;;7.46;41.15;98074.91;9850220;30;20059;-76
2022/02/05 14:32:08;;;;;;;2.95;1.00;;;;;;;7.29;40.90;98080.38;9835146;30;20055;-76
2022/02/05 14:43:09;;;;;;;2.45;0.90;;;;;;;6.70;41.78;98089.91;9889352;29;20099;-76
2022/02/05 14:48:30;;;;;;;5.65;1.05;;;;;;;6.57;42.83;98085.34;9869583;30;20093;-76
2022/02/05 14:53:54;;;;;;;3.72;1.00;;;;;;;6.77;42.65;98080.09;9857507;30;20051;-76
2022/02/05 14:59:15;;;;;;;5.43;1.00;;;;;;;6.90;42.38;98088.16;9857566;30;20386;-76
2022/02/05 15:04:37;;;;;;;2.47;0.80;;;;;;;7.02;42.67;98089.22;9843097;30;20044;-76
2022/02/05 15:09:58;;;;;;;4.20;1.10;;;;;;;7.03;42.63;98096.25;9894125;30;20050;-76
2022/02/05 15:15:24;;;;;;;3.63;1.05;;;;;;;6.97;42.80;98106.84;9869315;30;20051;-76
2022/02/05 15:20:45;;;;;;;4.05;1.05;;;;;;;6.99;42.99;98103.50;9883220;30;20069;-76
2022/02/05 15:26:06;;;;;;;2.22;0.80;;;;;;;6.88;42.93;98104.66;9881352;30;20047;-76
2022/02/05 15:31:27;;;;;;;4.30;1.23;;;;;;;6.71;43.17;98115.63;9894402;29;20051;-76
2022/02/05 15:47:51;;;;;;;6.03;1.25;;;;;;;6.03;44.50;98100.59;9942952;29;20047;-75
2022/02/05 15:53:13;;;;;;;4.97;1.05;;;;;;;5.90;44.56;98101.53;9937312;29;20051;-75
2022/02/05 15:58:46;;;;;;;7.22;1.40;;;;;;;5.75;44.81;98102.25;9913242;29;20503;-75
2022/02/05 16:04:13;;;;;;;6.47;1.50;;;;;;;5.69;45.43;98118.31;9925711;29;20418;-75
2022/02/05 16:09:34;;;;;;;3.58;1.27;;;;;;;5.62;45.54;98112.75;9924276;29;20058;-75
2022/02/05 16:14:58;;;;;;;4.75;1.42;;;;;;;5.57;45.63;98116.44;9925198;29;20050;-74
2022/02/05 16:20:19;;;;;;;5.63;1.55;;;;;;;5.51;45.86;98136.00;9923807;29;20055;-75
2022/02/05 16:25:40;;;;;;;4.45;0.85;;;;;;;5.41;46.04;98144.13;9936029;29;20050;-82
2022/02/05 16:31:03;;;;;;;2.83;0.70;;;;;;;5.49;46.05;98133.03;9941315;29;20094;-81
2022/02/05 16:36:28;;;;;;;3.05;1.08;;;;;;;5.49;46.06;98137.84;9939685;29;20051;-82
2022/02/05 16:41:48;;;;;;;;;;;;;;;5.46;46.30;98134.88;9957912;29;20062;-82
2022/02/05 16:47:10;;;;;;;3.65;0.88;;;;;;;5.37;46.37;98132.66;9936785;29;19925;-80
2022/02/05 16:52:31;;;;;;;3.60;1.35;;;;;;;5.32;46.94;98130.81;9951639;29;20043;-80
2022/02/05 16:57:52;;;;;;;4.22;1.58;;;;;;;5.17;46.31;98120.41;9896997;29;20063;-78
2022/02/05 17:03:13;;;;;;;4.68;1.58;;;;;;;5.17;46.87;98125.22;9938187;29;20042;-77
2022/02/05 17:08:35;;;;;;;5.20;1.40;;;;;;;5.13;46.79;98128.34;9899491;30;20059;-78
2022/02/05 17:13:57;;;;;;;4.47;1.60;;;;;;;5.09;47.07;98124.44;9885772;30;20126;-78
2022/02/05 17:19:18;;;;;;;6.47;1.90;;;;;;;5.02;47.15;98120.41;9934973;29;20125;-78
2022/02/05 17:24:38;;;;;;;4.43;1.50;;;;;;;5.05;47.38;98132.38;9958873;29;20482;-78
2022/02/05 17:29:59;;;;;;;2.90;1.00;;;;;;;5.09;47.41;98152.13;9963808;29;20057;-78
2022/02/05 17:35:24;;;;;;;2.58;1.02;;;;;;;5.15;47.33;98152.72;9959194;29;20050;-80
2022/02/05 17:40:46;;;;;;;6.10;1.80;;;;;;;5.26;47.34;98148.88;9947780;29;20111;-77
2022/02/05 17:46:07;;;;;;;5.15;1.50;;;;;;;5.29;47.33;98145.00;9958962;29;20050;-78
2022/02/05 17:51:28;;;;;;;6.70;2.00;;;;;;;5.27;47.18;98145.53;9933441;29;20050;-78
2022/02/05 17:56:53;;;;;;;5.63;1.50;;;;;;;5.26;47.22;98146.09;9918782;29;20062;-78
2022/02/05 18:02:16;;;;;;;4.47;1.70;;;;;;;5.30;47.52;98149.97;9934091;29;20054;-77
2022/02/05 18:07:58;;;;;;;4.53;2.17;;;;;;;5.28;47.76;98141.47;9946696;29;20386;-78
2022/02/05 18:19:04;;;;;;;;;;;;;;;5.22;48.03;98135.41;9964498;29;20061;-78
2022/02/05 18:24:25;;;;;;;3.78;1.15;;;;;;;5.18;47.44;98126.69;9970216;29;19932;-78
2022/02/05 18:29:47;;;;;;;3.13;1.02;;;;;;;5.16;47.95;98132.03;9966032;29;20056;-81
2022/02/05 18:35:08;;;;;;;5.35;1.60;;;;;;;5.12;48.65;98115.06;9945969;29;20056;-78
2022/02/05 18:40:28;;;;;;;4.63;1.17;;;;;;;5.11;48.50;98113.56;9972494;29;20046;-82
2022/02/05 18:45:49;;;;;;;6.13;1.20;;;;;;;5.12;48.24;98113.03;9944935;29;20046;-78
2022/02/05 18:51:11;;;;;;;3.78;1.17;;;;;;;5.10;47.96;98107.28;9957611;29;20050;-77
2022/02/05 18:56:34;;;;;;;4.38;1.25;;;;;;;5.09;47.97;98097.53;9944195;29;20397;-77
2022/02/05 19:18:42;;;;;;;8.35;2.78;;;;;;;4.55;49.29;98090.31;9964390;29;20047;-78
2022/02/05 19:24:03;;;;;;;5.03;1.67;;;;;;;4.48;48.84;98091.03;9963120;29;20065;-78
2022/02/05 19:29:25;;;;;;;6.68;1.20;;;;;;;4.39;49.07;98083.22;9938068;29;20413;-78
2022/02/05 19:34:46;;;;;;;3.63;1.30;;;;;;;4.34;49.46;98084.84;9950702;29;20495;-78
2022/02/05 19:40:07;;;;;;;5.45;1.33;;;;;;;4.26;49.39;98070.28;9950131;29;20051;-78
2022/02/05 19:45:32;;;;;;;5.10;1.30;;;;;;;4.19;49.42;98080.00;9962596;29;20123;-78
2022/02/05 19:50:53;;;;;;;6.50;1.27;;;;;;;4.16;49.56;98066.53;9950511;29;20050;-78
2022/02/05 19:56:14;;;;;;;4.40;0.82;;;;;;;4.11;50.11;98064.66;9949489;29;20418;-78
2022/02/05 20:01:36;;;;;;;5.80;0.90;;;;;;;4.09;49.50;98067.97;9962470;29;20046;-78
2022/02/05 20:07:02;;;;;;;3.25;0.80;;;;;;;4.02;49.46;98057.59;9962258;29;20509;-78
2022/02/05 20:12:28;;;;;;;3.60;1.15;;;;;;;3.86;50.31;98056.00;9951066;29;20115;-78
2022/02/05 20:17:51;;;;;;;4.38;1.45;;;;;;;3.79;50.25;98051.19;9961438;29;20448;-79
2022/02/05 20:23:15;;;;;;;2.90;1.10;;;;;;;3.68;50.30;98033.63;9949050;29;20042;-79
2022/02/05 20:28:35;;;;;;;3.22;1.30;;;;;;;3.66;51.04;98030.66;9948795;29;20046;-78
2022/02/05 20:33:57;;;;;;;5.28;1.70;;;;;;;3.60;51.54;98032.81;9973579;29;20482;-79
2022/02/05 20:39:18;;;;;;;5.82;1.90;;;;;;;3.57;51.72;98020.13;9951578;29;20061;-77
2022/02/05 20:44:41;;;;;;;4.60;1.90;;;;;;;3.57;52.40;98030.38;9961782;29;20079;-75
2022/02/05 20:50:13;;;;;;;4.90;1.80;;;;;;;3.56;51.80;98018.59;9959049;29;20057;-76
2022/02/05 20:55:35;;;;;;;5.40;1.70;;;;;;;3.53;52.31;98011.41;9960872;29;20042;-76
2022/02/05 21:00:57;;;;;;;5.30;1.42;;;;;;;3.45;53.02;98000.31;9948014;29;20054;-76
2022/02/05 21:06:19;;;;;;;4.38;1.90;;;;;;;3.46;52.30;97987.25;9906422;29;20074;-76
2022/02/05 21:11:40;;;;;;;4.65;1.45;;;;;;;3.44;52.83;97990.56;9905638;29;20054;-76
2022/02/05 21:17:01;;;;;;;5.75;1.63;;;;;;;3.51;53.81;97974.59;9889872;29;20043;-75
2022/02/05 21:22:22;;;;;;;4.20;1.38;;;;;;;3.60;53.03;97965.84;9899859;29;20058;-76
2022/02/05 21:27:55;;;;;;;5.30;1.20;;;;;;;3.73;53.47;97960.94;9901720;29;20059;-76
2022/02/05 21:39:08;;;;;;;5.55;1.10;;;;;;;3.86;53.90;97959.34;9878558;30;20059;-77
2022/02/05 21:44:30;;;;;;;4.40;1.27;;;;;;;3.89;53.77;97952.75;9883809;30;20057;-76
2022/02/05 21:55:20;;;;;;;4.88;1.10;;;;;;;3.90;53.97;97949.44;9883471;30;20054;-76
2022/02/05 22:00:48;;;;;;;8.57;1.75;;;;;;;3.87;54.10;97947.03;9883687;30;20043;-75
2022/02/05 22:06:08;;;;;;;5.82;1.40;;;;;;;3.83;54.39;97930.06;9884520;30;20104;-75
2022/02/05 22:11:29;;;;;;;4.68;1.48;;;;;;;3.77;54.42;97919.19;9870721;30;20054;-75
2022/02/05 22:16:50;;;;;;;6.18;1.02;;;;;;;3.78;55.28;97915.16;9883549;30;20055;-76
2022/02/05 22:22:11;;;;;;;5.18;1.10;;;;;;;3.72;54.63;97904.25;9870609;30;20051;-76
2022/02/05 22:27:32;;;;;;;4.05;1.10;;;;;;;3.69;54.96;97896.31;9870776;30;20051;-76
2022/02/05 22:32:53;;;;;;;3.75;1.05;;;;;;;3.73;55.65;97886.38;9870264;30;20043;-76
2022/02/05 22:38:14;;;;;;;3.78;1.15;;;;;;;3.79;55.19;97886.25;9882681;30;20056;-76
2022/02/05 22:43:35;;;;;;;3.58;0.90;;;;;;;3.88;55.39;97893.28;9882351;30;20062;-75
2022/02/05 22:48:55;;;;;;;3.00;0.90;;;;;;;3.93;55.23;97892.38;9882203;30;20051;-75
2022/02/05 22:54:17;;;;;;;4.93;1.48;;;;;;;4.00;55.45;97895.16;9870102;30;20051;-75
2022/02/05 22:59:38;;;;;;;6.03;1.70;;;;;;;4.09;55.39;97890.41;9882459;30;20055;-76
2022/02/05 23:04:59;;;;;;;5.85;2.10;;;;;;;4.14;55.18;97887.47;9976737;24;20066;-76
2022/02/05 23:10:28;;;;;;;3.42;1.27;;;;;;;4.20;55.65;97895.59;9982667;29;20046;-76
2022/02/05 23:43:40;;;;;;;5.20;1.00;;;;;;;4.28;55.99;97846.63;9955607;29;20405;-76
2022/02/05 23:49:05;;;;;;;6.78;1.40;;;;;;;4.29;55.58;97842.56;9955713;29;20058;-76
2022/02/05 23:54:25;;;;;;;2.70;0.73;;;;;;;4.34;56.01;97821.56;9971737;29;20102;-76
2022/02/05 23:59:49;;;;;;;2.60;0.80;;;;;;;4.36;55.53;97830.78;9974723;29;20058;-76
